createdAt,value
2023-01-13T00:01:27.827Z,12.41
2023-01-13T00:03:57.005Z,12.42
2023-01-13T00:06:26.939Z,12.43
2023-01-13T00:08:57.827Z,12.50
2023-01-13T00:11:27.737Z,12.50
2023-01-13T00:13:57.147Z,12.55
2023-01-13T00:16:25.984Z,12.56
2023-01-13T00:18:54.595Z,12.59
2023-01-13T00:21:24.999Z,12.60
2023-01-13T00:23:55.122Z,12.59
2023-01-13T00:26:27.063Z,12.61
2023-01-13T00:28:58.935Z,12.55
2023-01-13T00:31:29.973Z,12.50
2023-01-13T00:34:00.160Z,12.48
2023-01-13T00:36:30.772Z,12.38
2023-01-13T00:39:00.225Z,12.43
2023-01-13T00:41:50.211Z,12.48
2023-01-13T00:44:18.239Z,12.51
2023-01-13T00:46:46.886Z,12.38
2023-01-13T00:49:16.110Z,12.29
2023-01-13T00:51:44.574Z,12.38
2023-01-13T00:54:13.365Z,12.42
2023-01-13T00:56:43.285Z,12.42
2023-01-13T00:59:13.591Z,12.44
2023-01-13T01:01:42.494Z,12.52
2023-01-13T01:04:12.204Z,12.58
2023-01-13T01:06:40.988Z,12.61
2023-01-13T01:09:14.072Z,12.62
2023-01-13T01:11:44.853Z,12.67
2023-01-13T01:14:15.423Z,12.66
2023-01-13T01:16:43.975Z,12.71
2023-01-13T01:19:12.888Z,12.70
2023-01-13T01:21:41.901Z,12.72
2023-01-13T01:24:11.408Z,12.75
2023-01-13T01:26:41.904Z,12.78
2023-01-13T01:29:15.210Z,12.77
2023-01-13T01:31:44.987Z,12.72
2023-01-13T01:34:13.928Z,12.74
2023-01-13T01:36:42.699Z,12.73
2023-01-13T01:39:12.007Z,12.74
2023-01-13T01:42:00.451Z,12.74
2023-01-13T01:44:53.804Z,12.95
2023-01-13T01:47:23.752Z,12.77
2023-01-13T01:49:52.980Z,12.78
2023-01-13T01:52:27.075Z,12.78
2023-01-13T01:55:00.873Z,12.79
2023-01-13T01:57:33.847Z,12.77
2023-01-13T02:00:05.426Z,12.78
2023-01-13T02:02:41.587Z,12.68
2023-01-13T02:05:10.848Z,12.68
2023-01-13T02:07:42.016Z,12.76
2023-01-13T02:10:13.601Z,12.66
2023-01-13T02:12:45.399Z,12.61
2023-01-13T02:15:18.999Z,12.42
2023-01-13T02:18:20.509Z,12.44
2023-01-13T02:21:13.748Z,12.47
2023-01-13T02:24:47.805Z,12.28
2023-01-13T02:27:41.900Z,12.34
2023-01-13T02:30:38.979Z,12.33
2023-01-13T02:33:20.461Z,12.35
2023-01-13T02:35:53.475Z,12.33
2023-01-13T02:38:28.815Z,12.44
2023-01-13T02:41:21.841Z,12.45
2023-01-13T02:44:08.345Z,12.48
2023-01-13T02:46:45.648Z,12.59
2023-01-13T02:49:21.298Z,12.54
2023-01-13T02:51:52.539Z,12.44
2023-01-13T02:54:25.699Z,12.47
2023-01-13T02:56:56.922Z,12.48
2023-01-13T02:59:27.945Z,12.52
2023-01-13T03:01:58.567Z,12.57
2023-01-13T03:04:51.527Z,12.79
2023-01-13T03:07:55.748Z,12.78
2023-01-13T03:10:39.083Z,12.76
2023-01-13T03:13:18.614Z,12.76
2023-01-13T03:16:01.427Z,12.82
2023-01-13T03:18:41.829Z,12.81
2023-01-13T03:21:21.039Z,12.83
2023-01-13T03:23:54.111Z,12.74
2023-01-13T03:26:32.042Z,12.80
2023-01-13T03:29:07.873Z,12.78
2023-01-13T03:31:44.498Z,12.71
2023-01-13T03:34:18.478Z,12.72
2023-01-13T03:36:51.449Z,12.74
2023-01-13T03:39:28.262Z,12.76
2023-01-13T03:42:01.613Z,12.79
2023-01-13T03:44:34.090Z,12.72
2023-01-13T03:47:11.400Z,12.59
2023-01-13T03:49:48.293Z,12.62
2023-01-13T03:52:24.250Z,12.60
2023-01-13T03:54:56.781Z,12.48
2023-01-13T03:57:30.637Z,12.45
2023-01-13T04:00:04.071Z,12.39
2023-01-13T04:02:54.960Z,12.55
2023-01-13T04:05:26.227Z,12.37
2023-01-13T04:08:02.220Z,12.40
2023-01-13T04:10:36.725Z,12.40
2023-01-13T04:13:09.276Z,12.47
2023-01-13T04:15:40.325Z,12.37
2023-01-13T04:18:15.835Z,12.41
2023-01-13T04:20:48.417Z,12.38
2023-01-13T04:23:18.265Z,12.29
2023-01-13T04:25:47.769Z,12.26
2023-01-13T04:28:17.844Z,12.25
2023-01-13T04:30:47.362Z,12.29
2023-01-13T04:33:17.945Z,12.21
2023-01-13T04:35:48.677Z,12.22
2023-01-13T04:38:20.596Z,12.29
2023-01-13T04:40:49.854Z,12.17
2023-01-13T04:43:18.999Z,12.01
2023-01-13T04:45:47.715Z,12.13
2023-01-13T04:48:16.586Z,12.00
2023-01-13T04:50:45.075Z,12.12
2023-01-13T04:53:15.409Z,12.15
2023-01-13T04:55:45.195Z,12.20
2023-01-13T04:58:14.013Z,12.29
2023-01-13T05:00:43.126Z,12.33
2023-01-13T05:03:12.104Z,12.36
2023-01-13T05:05:40.667Z,12.46
2023-01-13T05:08:10.164Z,12.43
2023-01-13T05:10:40.180Z,12.47
2023-01-13T05:13:27.697Z,12.51
2023-01-13T05:16:13.975Z,12.48
2023-01-13T05:18:43.022Z,12.44
2023-01-13T05:21:31.567Z,12.43
2023-01-13T05:24:17.724Z,12.52
2023-01-13T05:26:47.780Z,12.54
2023-01-13T05:29:16.687Z,12.56
2023-01-13T05:31:45.239Z,12.63
2023-01-13T05:34:14.457Z,12.67
2023-01-13T05:36:43.059Z,12.74
2023-01-13T05:39:12.088Z,12.63
2023-01-13T05:41:58.492Z,12.67
2023-01-13T05:44:28.836Z,12.71
2023-01-13T05:46:57.644Z,12.69
2023-01-13T05:49:26.515Z,12.65
2023-01-13T05:51:55.098Z,12.56
2023-01-13T05:54:23.899Z,12.50
2023-01-13T05:56:52.458Z,12.51
2023-01-13T05:59:21.402Z,12.52
2023-01-13T06:01:51.305Z,12.57
2023-01-13T06:04:20.255Z,12.56
2023-01-13T06:06:48.983Z,12.57
2023-01-13T06:09:17.965Z,12.43
2023-01-13T06:11:46.565Z,12.54
2023-01-13T06:14:15.856Z,12.61
2023-01-13T06:16:45.947Z,12.61
2023-01-13T06:19:16.436Z,12.67
2023-01-13T06:21:45.323Z,12.73
2023-01-13T06:24:14.246Z,12.74
2023-01-13T06:26:42.859Z,12.78
2023-01-13T06:29:15.027Z,12.81
2023-01-13T06:31:44.449Z,12.79
2023-01-13T06:34:14.785Z,12.76
2023-01-13T06:36:49.865Z,12.55
2023-01-13T06:39:23.647Z,12.59
2023-01-13T06:42:12.983Z,12.71
2023-01-13T06:44:42.125Z,12.67
2023-01-13T06:47:11.153Z,12.71
2023-01-13T06:49:40.102Z,12.60
2023-01-13T06:52:10.070Z,12.62
2023-01-13T06:54:39.063Z,12.58
2023-01-13T06:57:07.703Z,12.62
2023-01-13T06:59:36.684Z,12.72
2023-01-13T07:02:05.393Z,12.69
2023-01-13T07:04:34.325Z,12.77
2023-01-13T07:07:02.898Z,12.83
2023-01-13T07:09:33.219Z,12.89
2023-01-13T07:12:01.812Z,12.81
2023-01-13T07:14:48.315Z,12.77
2023-01-13T07:17:25.101Z,12.81
2023-01-13T07:19:54.721Z,12.72
2023-01-13T07:22:24.544Z,12.80
2023-01-13T07:24:54.849Z,12.81
2023-01-13T07:27:23.382Z,12.75
2023-01-13T07:29:52.203Z,12.71
2023-01-13T07:32:20.723Z,12.67
2023-01-13T07:34:49.588Z,12.56
2023-01-13T07:37:18.317Z,12.60
2023-01-13T07:39:47.375Z,12.58
2023-01-13T07:42:31.127Z,12.58
2023-01-13T07:45:00.313Z,12.56
2023-01-13T07:47:29.131Z,12.49
2023-01-13T07:49:57.996Z,12.36
2023-01-13T07:52:26.486Z,12.38
2023-01-13T07:54:55.258Z,12.31
2023-01-13T07:57:25.326Z,12.27
2023-01-13T07:59:54.239Z,12.27
2023-01-13T08:02:23.137Z,12.11
2023-01-13T08:04:52.085Z,12.07
2023-01-13T08:07:20.757Z,12.01
2023-01-13T08:09:49.899Z,12.09
2023-01-13T08:12:35.951Z,12.18
2023-01-13T08:15:10.110Z,12.06
2023-01-13T08:17:38.714Z,11.77
2023-01-13T08:20:08.912Z,11.74
2023-01-13T08:22:38.366Z,11.85
2023-01-13T08:25:08.109Z,12.03
2023-01-13T08:27:36.663Z,12.06
2023-01-13T08:30:08.494Z,12.02
2023-01-13T08:32:37.161Z,12.08
2023-01-13T08:35:06.771Z,11.96
2023-01-13T08:37:35.393Z,12.00
2023-01-13T08:40:04.608Z,11.80
2023-01-13T08:42:33.455Z,11.88
2023-01-13T08:45:02.291Z,11.92
2023-01-13T08:47:32.379Z,12.05
2023-01-13T08:50:01.296Z,12.07
2023-01-13T08:52:30.798Z,12.03
2023-01-13T08:54:59.649Z,12.00
2023-01-13T08:57:28.790Z,11.92
2023-01-13T08:59:57.863Z,11.89
2023-01-13T09:02:27.429Z,11.67
2023-01-13T09:04:57.791Z,11.67
2023-01-13T09:07:26.418Z,11.70
2023-01-13T09:09:56.875Z,11.54
2023-01-13T09:12:43.109Z,11.72
2023-01-13T09:15:12.553Z,11.77
2023-01-13T09:17:41.342Z,11.76
2023-01-13T09:20:13.805Z,11.68
2023-01-13T09:22:42.401Z,11.61
2023-01-13T09:25:12.607Z,11.88
2023-01-13T09:27:41.171Z,11.90
2023-01-13T09:30:11.533Z,12.02
2023-01-13T09:32:40.199Z,11.92
2023-01-13T09:35:10.326Z,11.82
2023-01-13T09:37:41.258Z,11.59
2023-01-13T09:40:32.169Z,11.96
2023-01-13T09:43:24.389Z,12.11
2023-01-13T09:46:01.619Z,12.05
2023-01-13T09:48:33.664Z,12.15
2023-01-13T09:51:14.701Z,12.24
2023-01-13T09:53:51.507Z,12.18
2023-01-13T09:56:20.319Z,12.10
2023-01-13T09:58:49.337Z,12.27
2023-01-13T10:01:29.452Z,12.31
2023-01-13T10:04:03.758Z,12.41
2023-01-13T10:06:38.804Z,12.49
2023-01-13T10:09:07.618Z,12.55
2023-01-13T10:12:01.438Z,12.56
2023-01-13T10:14:36.132Z,12.56
2023-01-13T10:17:13.350Z,12.67
2023-01-13T10:19:45.675Z,12.59
2023-01-13T10:22:35.861Z,12.70
2023-01-13T10:25:18.463Z,12.66
2023-01-13T10:27:50.229Z,12.69
2023-01-13T10:30:22.444Z,12.82
2023-01-13T10:32:55.979Z,12.97
2023-01-13T10:35:54.495Z,13.19
2023-01-13T10:38:27.786Z,13.12
2023-01-13T10:40:58.142Z,13.24
2023-01-13T10:43:28.044Z,13.31
2023-01-13T10:46:03.277Z,13.42
2023-01-13T10:48:41.132Z,13.47
2023-01-13T10:51:21.142Z,13.50
2023-01-13T10:53:55.997Z,13.47
2023-01-13T10:56:27.302Z,13.47
2023-01-13T10:59:14.123Z,13.56
2023-01-13T11:01:44.490Z,13.56
2023-01-13T11:04:29.620Z,13.89
2023-01-13T11:06:59.055Z,13.95
2023-01-13T11:09:31.702Z,14.07
2023-01-13T11:12:03.095Z,13.97
2023-01-13T11:14:42.590Z,14.15
2023-01-13T11:17:23.190Z,14.05
2023-01-13T11:19:58.613Z,14.26
2023-01-13T11:22:33.328Z,14.36
2023-01-13T11:25:05.927Z,14.24
2023-01-13T11:27:43.724Z,14.39
2023-01-13T11:30:23.253Z,14.56
2023-01-13T11:33:26.628Z,14.40
2023-01-13T11:36:04.533Z,14.58
2023-01-13T11:38:39.125Z,14.52
2023-01-13T11:41:19.082Z,14.45
2023-01-13T11:43:55.285Z,14.52
2023-01-13T11:46:28.684Z,14.58
2023-01-13T11:48:58.007Z,14.56
2023-01-13T11:51:35.660Z,14.79
2023-01-13T11:54:46.999Z,14.86
2023-01-13T11:57:40.644Z,14.80
2023-01-13T12:00:28.133Z,14.81
2023-01-13T12:03:11.710Z,14.70
2023-01-13T12:05:44.419Z,14.43
2023-01-13T12:08:19.837Z,14.65
2023-01-13T12:11:02.653Z,14.56
2023-01-13T12:13:45.796Z,14.68
2023-01-13T12:16:20.270Z,14.53
2023-01-13T12:19:07.657Z,14.65
2023-01-13T12:21:40.053Z,14.38
2023-01-13T12:24:18.306Z,14.43
2023-01-13T12:26:55.636Z,14.46
2023-01-13T12:29:32.075Z,14.52
2023-01-13T12:32:03.171Z,14.43
2023-01-13T12:34:41.102Z,14.36
2023-01-13T12:37:18.228Z,14.33
2023-01-13T12:40:00.721Z,14.37
2023-01-13T12:42:56.480Z,14.25
2023-01-13T12:45:31.319Z,14.26
2023-01-13T12:48:01.069Z,14.23
2023-01-13T12:50:42.404Z,14.13
2023-01-13T12:53:34.698Z,14.11
2023-01-13T12:56:42.222Z,14.38
2023-01-13T12:59:49.037Z,14.21
2023-01-13T13:03:07.451Z,14.17
2023-01-13T13:05:59.447Z,14.22
2023-01-13T13:08:45.593Z,14.23
2023-01-13T13:11:41.677Z,14.04
2023-01-13T13:14:13.847Z,13.85
2023-01-13T13:16:52.293Z,13.93
2023-01-13T13:19:50.970Z,13.98
2023-01-13T13:22:40.130Z,14.08
2023-01-13T13:25:28.349Z,14.16
2023-01-13T13:28:17.544Z,14.26
2023-01-13T13:30:57.452Z,14.43
2023-01-13T13:33:48.969Z,14.32
2023-01-13T13:36:40.538Z,14.33
2023-01-13T13:39:40.002Z,14.20
2023-01-13T13:42:32.444Z,14.16
2023-01-13T13:45:21.249Z,14.22
2023-01-13T13:47:50.549Z,14.37
2023-01-13T13:50:21.627Z,14.40
2023-01-13T13:52:57.634Z,14.43
2023-01-13T13:55:27.973Z,14.41
2023-01-13T13:57:58.562Z,14.50
2023-01-13T14:00:30.430Z,14.48
2023-01-13T14:03:01.649Z,14.50
2023-01-13T14:05:32.757Z,14.57
2023-01-13T14:08:05.427Z,14.57
2023-01-13T14:10:36.427Z,14.37
2023-01-13T14:13:15.621Z,14.50
2023-01-13T14:15:45.415Z,14.18
2023-01-13T14:18:17.913Z,14.27
2023-01-13T14:20:54.194Z,14.24
2023-01-13T14:23:28.634Z,14.09
2023-01-13T14:26:04.711Z,14.17
2023-01-13T14:28:38.022Z,14.04
2023-01-13T14:31:08.494Z,13.92
2023-01-13T14:33:40.926Z,14.04
2023-01-13T14:36:16.488Z,14.01
2023-01-13T14:38:48.468Z,14.04
2023-01-13T14:41:25.240Z,14.10
2023-01-13T14:43:59.324Z,14.04
2023-01-13T14:46:38.311Z,14.08
2023-01-13T14:49:16.088Z,13.91
2023-01-13T14:51:44.883Z,13.91
2023-01-13T14:54:46.110Z,13.98
2023-01-13T14:57:17.692Z,13.90
2023-01-13T14:59:51.931Z,13.94
2023-01-13T15:02:40.625Z,14.02
2023-01-13T15:05:31.991Z,14.00
2023-01-13T15:08:03.545Z,13.80
2023-01-13T15:10:38.115Z,13.78
2023-01-13T15:13:08.294Z,13.58
2023-01-13T15:15:39.226Z,13.51
2023-01-13T15:18:14.266Z,13.46
2023-01-13T15:20:43.716Z,13.32
2023-01-13T15:23:12.976Z,13.09
2023-01-13T15:25:45.533Z,13.15
2023-01-13T15:28:19.749Z,13.09
2023-01-13T15:30:49.627Z,12.95
2023-01-13T15:33:18.721Z,12.92
2023-01-13T15:35:50.262Z,12.83
2023-01-13T15:38:21.508Z,12.80
2023-01-13T15:40:53.544Z,12.89
2023-01-13T15:43:41.585Z,12.75
2023-01-13T15:46:32.158Z,12.72
2023-01-13T15:49:08.807Z,12.66
2023-01-13T15:51:38.930Z,12.60
2023-01-13T15:54:08.224Z,12.42
2023-01-13T15:56:42.092Z,12.45
2023-01-13T15:59:18.611Z,12.42
2023-01-13T16:01:47.713Z,12.31
2023-01-13T16:04:16.739Z,12.22
2023-01-13T16:06:47.611Z,12.04
2023-01-13T16:09:17.760Z,11.92
2023-01-13T16:11:48.095Z,11.98
2023-01-13T16:14:17.027Z,12.07
2023-01-13T16:16:46.137Z,12.09
2023-01-13T16:19:14.730Z,12.09
2023-01-13T16:21:45.373Z,11.83
2023-01-13T16:24:14.033Z,11.76
2023-01-13T16:26:42.993Z,11.74
2023-01-13T16:29:13.666Z,11.78
2023-01-13T16:31:42.663Z,11.73
2023-01-13T16:34:11.219Z,11.69
2023-01-13T16:36:40.203Z,11.60
2023-01-13T16:39:21.456Z,11.80
2023-01-13T16:41:50.451Z,11.71
2023-01-13T16:44:20.549Z,11.60
2023-01-13T16:46:50.028Z,11.55
2023-01-13T16:49:18.801Z,11.38
2023-01-13T16:51:47.760Z,11.25
2023-01-13T16:54:16.326Z,11.29
2023-01-13T16:56:45.425Z,11.46
2023-01-13T16:59:15.291Z,11.32
2023-01-13T17:01:45.981Z,11.32
2023-01-13T17:04:17.699Z,11.34
2023-01-13T17:06:54.328Z,11.50
2023-01-13T17:09:25.048Z,11.48
2023-01-13T17:11:54.077Z,11.49
2023-01-13T17:14:23.633Z,11.38
2023-01-13T17:16:58.449Z,11.30
2023-01-13T17:19:27.352Z,11.48
2023-01-13T17:21:56.375Z,11.35
2023-01-13T17:24:25.958Z,11.28
2023-01-13T17:26:54.844Z,11.26
2023-01-13T17:29:25.865Z,11.29
2023-01-13T17:31:56.472Z,11.36
2023-01-13T17:34:25.144Z,11.44
2023-01-13T17:36:54.180Z,11.41
2023-01-13T17:39:24.685Z,11.38
2023-01-13T17:41:55.948Z,11.38
2023-01-13T17:44:24.646Z,11.41
2023-01-13T17:46:53.657Z,11.40
2023-01-13T17:49:23.850Z,11.50
2023-01-13T17:51:53.119Z,11.64
2023-01-13T17:54:22.651Z,11.66
2023-01-13T17:56:51.604Z,11.79
2023-01-13T17:59:22.536Z,11.82
2023-01-13T18:01:51.773Z,11.91
2023-01-13T18:04:22.581Z,11.83
2023-01-13T18:06:53.661Z,11.72
2023-01-13T18:09:23.407Z,11.62
2023-01-13T18:11:52.300Z,11.60
2023-01-13T18:14:22.549Z,11.50
2023-01-13T18:16:51.758Z,11.54
2023-01-13T18:19:38.055Z,11.44
2023-01-13T18:22:25.710Z,11.45
2023-01-13T18:25:21.832Z,11.27
2023-01-13T18:27:51.021Z,11.32
2023-01-13T18:30:20.525Z,11.31
2023-01-13T18:32:49.429Z,11.30
2023-01-13T18:35:18.125Z,11.24
2023-01-13T18:37:48.576Z,11.16
2023-01-13T18:40:17.412Z,11.17
2023-01-13T18:42:59.265Z,11.24
2023-01-13T18:45:30.500Z,11.23
2023-01-13T18:48:01.707Z,11.18
2023-01-13T18:50:31.195Z,11.10
2023-01-13T18:53:01.810Z,11.05
2023-01-13T18:55:30.688Z,10.93
2023-01-13T18:57:59.600Z,10.90
2023-01-13T19:00:29.142Z,10.98
2023-01-13T19:05:35.733Z,10.97
2023-01-13T19:08:06.670Z,11.00
2023-01-13T19:10:36.628Z,11.06
2023-01-13T19:13:05.790Z,10.98
2023-01-13T19:15:37.469Z,11.06
2023-01-13T19:18:06.691Z,11.00
2023-01-13T19:20:35.453Z,11.04
2023-01-13T19:23:04.549Z,11.06
2023-01-13T19:25:34.459Z,11.16
2023-01-13T19:28:03.327Z,11.08
2023-01-13T19:30:32.075Z,11.08
2023-01-13T19:33:01.446Z,11.01
2023-01-13T19:35:30.489Z,11.08
2023-01-13T19:37:59.353Z,11.10
2023-01-13T19:40:28.137Z,11.13
2023-01-13T19:43:15.820Z,10.97
2023-01-13T19:45:44.995Z,10.70
2023-01-13T19:48:16.264Z,10.65
2023-01-13T19:50:44.889Z,10.52
2023-01-13T19:53:18.002Z,10.30
2023-01-13T19:55:48.435Z,10.40
2023-01-13T19:58:20.010Z,10.60
2023-01-13T20:00:48.751Z,10.70
2023-01-13T20:03:19.316Z,10.82
2023-01-13T20:05:48.479Z,10.74
2023-01-13T20:08:17.756Z,10.72
2023-01-13T20:10:47.444Z,10.63
2023-01-13T20:13:18.099Z,10.74
2023-01-13T20:15:46.820Z,10.81
2023-01-13T20:18:15.798Z,10.72
2023-01-13T20:20:44.302Z,10.68
2023-01-13T20:23:13.126Z,10.73
2023-01-13T20:25:43.471Z,10.75
2023-01-13T20:28:12.326Z,10.66
2023-01-13T20:30:42.544Z,10.69
2023-01-13T20:33:11.581Z,10.66
2023-01-13T20:35:40.374Z,10.65
2023-01-13T20:38:09.516Z,10.43
2023-01-13T20:40:38.131Z,10.54
2023-01-13T20:43:06.371Z,10.63
2023-01-13T20:45:35.201Z,10.65
2023-01-13T20:48:05.718Z,10.65
2023-01-13T20:50:34.282Z,10.69
2023-01-13T20:53:03.193Z,10.71
2023-01-13T20:55:31.995Z,10.64
2023-01-13T20:58:00.878Z,10.37
2023-01-13T21:00:29.841Z,10.42
2023-01-13T21:02:59.955Z,10.30
2023-01-13T21:05:29.961Z,10.20
2023-01-13T21:07:58.853Z,10.14
2023-01-13T21:10:27.385Z,9.87
2023-01-13T21:13:13.999Z,9.64
2023-01-13T21:15:48.066Z,9.91
2023-01-13T21:18:30.776Z,9.93
2023-01-13T21:21:12.470Z,9.68
2023-01-13T21:23:42.412Z,9.79
2023-01-13T21:26:12.324Z,9.84
2023-01-13T21:28:41.170Z,9.72
2023-01-13T21:31:10.633Z,9.69
2023-01-13T21:33:40.060Z,9.71
2023-01-13T21:36:13.284Z,9.54
2023-01-13T21:38:42.623Z,9.52
2023-01-13T21:41:14.418Z,9.49
2023-01-13T21:44:01.474Z,9.43
2023-01-13T21:46:47.468Z,9.45
2023-01-13T21:49:16.320Z,9.24
2023-01-13T21:51:46.375Z,9.26
2023-01-13T21:54:15.302Z,9.52
2023-01-13T21:56:43.837Z,9.65
2023-01-13T21:59:12.708Z,9.74
2023-01-13T22:02:02.874Z,9.77
2023-01-13T22:04:30.251Z,9.84
2023-01-13T22:07:04.565Z,9.90
2023-01-13T22:09:33.460Z,10.00
2023-01-13T22:12:02.491Z,10.06
2023-01-13T22:14:31.479Z,10.05
2023-01-13T22:17:01.247Z,10.09
2023-01-13T22:19:30.578Z,10.26
2023-01-13T22:22:00.649Z,10.22
2023-01-13T22:24:30.257Z,10.10
2023-01-13T22:26:58.857Z,10.14
2023-01-13T22:29:27.966Z,10.27
2023-01-13T22:31:56.689Z,10.38
2023-01-13T22:34:25.602Z,10.14
2023-01-13T22:36:54.335Z,10.33
2023-01-13T22:39:24.625Z,10.42
2023-01-13T22:41:53.465Z,10.50
2023-01-13T22:44:23.059Z,10.57
2023-01-13T22:46:51.644Z,10.57
2023-01-13T22:49:21.462Z,10.57
2023-01-13T22:51:50.111Z,10.53
2023-01-13T22:54:19.822Z,10.66
2023-01-13T22:56:49.865Z,10.53
2023-01-13T22:59:18.700Z,10.63
2023-01-13T23:01:47.588Z,10.49
2023-01-13T23:04:16.689Z,10.42
2023-01-13T23:06:45.410Z,10.33
2023-01-13T23:09:14.306Z,10.15
2023-01-13T23:11:43.195Z,10.15
2023-01-13T23:14:14.058Z,10.27
2023-01-13T23:16:44.000Z,10.26
2023-01-13T23:19:15.217Z,9.93
2023-01-13T23:21:44.188Z,9.90
2023-01-13T23:24:13.150Z,10.05
2023-01-13T23:26:42.353Z,9.99
2023-01-13T23:29:14.585Z,9.90
2023-01-13T23:31:43.320Z,9.84
2023-01-13T23:34:13.319Z,9.73
2023-01-13T23:36:43.418Z,9.80
2023-01-13T23:39:12.461Z,9.60
2023-01-13T23:41:41.126Z,9.60
2023-01-13T23:44:10.697Z,9.82
2023-01-13T23:46:40.837Z,9.69
2023-01-13T23:49:09.724Z,9.68
2023-01-13T23:51:38.323Z,9.52
2023-01-13T23:54:07.271Z,9.63
2023-01-13T23:56:39.408Z,9.43
2023-01-13T23:59:08.662Z,9.38
